createdAt,value
2019-01-19T00:17:35.455Z,94.80
2019-01-19T00:20:30.197Z,94.80
2019-01-19T00:23:10.104Z,95.00
2019-01-19T00:26:18.744Z,94.70
2019-01-19T00:29:01.253Z,94.60
2019-01-19T00:31:50.411Z,94.60
2019-01-19T00:34:40.997Z,94.80
2019-01-19T00:37:17.926Z,94.90
2019-01-19T00:40:00.754Z,94.90
2019-01-19T00:42:40.198Z,94.70
2019-01-19T00:45:31.747Z,94.60
2019-01-19T00:48:23.740Z,94.70
2019-01-19T00:50:57.751Z,94.40
2019-01-19T00:53:52.644Z,95.00
2019-01-19T00:56:50.354Z,94.60
2019-01-19T00:59:24.688Z,94.60
2019-01-19T01:02:33.474Z,94.80
2019-01-19T01:05:13.335Z,95.10
2019-01-19T01:07:59.161Z,95.00
2019-01-19T01:10:42.328Z,95.10
2019-01-19T01:13:21.890Z,94.90
2019-01-19T01:15:58.999Z,95.00
2019-01-19T01:18:51.037Z,94.90
2019-01-19T01:21:39.697Z,94.70
2019-01-19T01:24:34.910Z,94.70
2019-01-19T01:27:18.219Z,94.70
2019-01-19T01:30:33.174Z,94.80
2019-01-19T01:33:19.395Z,94.70
2019-01-19T01:36:20.445Z,94.50
2019-01-19T01:39:11.575Z,94.40
2019-01-19T01:41:54.282Z,94.60
2019-01-19T01:44:30.936Z,94.60
2019-01-19T01:47:27.482Z,94.50
2019-01-19T01:50:15.693Z,94.80
2019-01-19T01:53:33.966Z,94.40
2019-01-19T01:56:04.499Z,95.10
2019-01-19T01:58:53.278Z,94.80
2019-01-19T02:01:36.055Z,94.80
2019-01-19T02:04:42.853Z,94.50
2019-01-19T02:07:34.766Z,94.90
2019-01-19T02:10:34.379Z,95.00
2019-01-19T02:13:32.761Z,94.30
2019-01-19T02:16:34.086Z,94.60
2019-01-19T02:19:30.544Z,94.50
2019-01-19T02:22:20.249Z,94.70
2019-01-19T02:25:03.053Z,95.00
2019-01-19T02:28:10.547Z,94.60
2019-01-19T02:31:05.760Z,94.50
2019-01-19T02:33:54.997Z,94.50
2019-01-19T02:36:44.288Z,95.10
2019-01-19T02:39:56.959Z,94.50
2019-01-19T02:42:50.468Z,94.70
2019-01-19T02:45:42.497Z,94.60
2019-01-19T02:48:35.780Z,94.50
2019-01-19T02:51:37.894Z,94.70
2019-01-19T02:54:45.134Z,94.40
2019-01-19T02:57:36.668Z,94.60
2019-01-19T03:00:22.448Z,94.20
2019-01-19T03:03:11.085Z,94.10
2019-01-19T03:05:56.698Z,93.90
2019-01-19T03:08:42.480Z,94.10
2019-01-19T03:11:37.230Z,94.40
2019-01-19T03:14:35.105Z,94.60
2019-01-19T03:17:35.966Z,94.20
2019-01-19T03:20:30.841Z,94.50
2019-01-19T03:23:32.105Z,94.90
2019-01-19T03:26:32.812Z,94.20
2019-01-19T03:29:18.234Z,94.10
2019-01-19T03:32:25.361Z,94.00
2019-01-19T03:35:17.352Z,93.90
2019-01-19T03:38:22.906Z,93.60
2019-01-19T03:40:59.370Z,93.90
2019-01-19T03:43:44.543Z,94.20
2019-01-19T03:46:33.472Z,94.00
2019-01-19T03:49:16.446Z,94.40
2019-01-19T03:51:50.398Z,94.10
2019-01-19T03:54:36.029Z,94.30
2019-01-19T03:57:12.695Z,94.50
2019-01-19T04:00:18.442Z,94.40
2019-01-19T04:03:09.496Z,94.20
2019-01-19T04:05:52.157Z,94.30
2019-01-19T04:08:50.152Z,94.10
2019-01-19T04:11:46.680Z,94.20
2019-01-19T04:14:26.830Z,94.10
2019-01-19T04:17:24.701Z,94.20
2019-01-19T04:20:19.342Z,93.90
2019-01-19T04:22:49.857Z,94.10
2019-01-19T04:25:23.870Z,94.00
2019-01-19T04:27:53.000Z,94.00
2019-01-19T04:30:22.112Z,94.20
2019-01-19T04:32:51.176Z,94.30
2019-01-19T04:35:20.345Z,94.20
2019-01-19T04:37:49.714Z,94.00
2019-01-19T04:40:19.037Z,93.90
2019-01-19T04:42:48.167Z,94.30
2019-01-19T04:45:17.299Z,93.90
2019-01-19T04:47:46.361Z,94.00
2019-01-19T04:50:15.810Z,94.50
2019-01-19T04:52:44.953Z,94.20
2019-01-19T04:55:14.034Z,94.00
2019-01-19T04:57:43.147Z,93.90
2019-01-19T05:00:17.850Z,93.90
2019-01-19T05:02:47.215Z,93.80
2019-01-19T05:05:16.616Z,93.70
2019-01-19T05:07:45.745Z,94.00
2019-01-19T05:10:15.110Z,93.90
2019-01-19T05:12:44.179Z,94.30
2019-01-19T05:15:19.063Z,94.00
2019-01-19T05:17:51.619Z,94.00
2019-01-19T05:20:20.737Z,94.40
2019-01-19T05:22:49.962Z,94.00
2019-01-19T05:25:19.321Z,93.80
2019-01-19T05:27:48.442Z,93.70
2019-01-19T05:30:19.440Z,93.60
2019-01-19T05:32:48.870Z,93.40
2019-01-19T05:35:18.073Z,93.80
2019-01-19T05:37:47.149Z,93.80
2019-01-19T05:40:16.219Z,93.70
2019-01-19T05:42:46.246Z,94.00
2019-01-19T05:45:15.329Z,93.50
2019-01-19T05:47:44.666Z,93.70
2019-01-19T05:50:20.178Z,93.30
2019-01-19T05:52:49.243Z,93.20
2019-01-19T05:55:18.603Z,93.90
2019-01-19T05:57:47.720Z,93.60
2019-01-19T06:00:24.625Z,93.20
2019-01-19T06:02:53.581Z,93.20
2019-01-19T06:05:22.962Z,93.50
2019-01-19T06:07:52.022Z,93.40
2019-01-19T06:10:21.140Z,93.20
2019-01-19T06:12:50.207Z,93.40
2019-01-19T06:15:19.275Z,93.30
2019-01-19T06:17:51.098Z,93.10
2019-01-19T06:20:20.517Z,93.20
2019-01-19T06:22:49.914Z,93.40
2019-01-19T06:25:19.024Z,93.00
2019-01-19T06:27:48.193Z,93.40
2019-01-19T06:30:22.961Z,93.10
2019-01-19T06:32:52.087Z,93.70
2019-01-19T06:35:21.161Z,93.70
2019-01-19T06:37:50.235Z,93.40
2019-01-19T06:40:19.747Z,93.20
2019-01-19T06:42:48.819Z,93.10
2019-01-19T06:45:23.966Z,93.20
2019-01-19T06:47:53.095Z,92.90
2019-01-19T06:50:22.483Z,93.10
2019-01-19T06:52:51.865Z,93.40
2019-01-19T06:55:25.662Z,93.90
2019-01-19T06:57:54.746Z,93.70
2019-01-19T07:00:23.835Z,94.10
2019-01-19T07:02:52.960Z,94.10
2019-01-19T07:05:22.303Z,94.10
2019-01-19T07:07:51.405Z,94.00
2019-01-19T07:10:24.263Z,94.00
2019-01-19T07:12:53.344Z,94.00
2019-01-19T07:15:22.465Z,94.00
2019-01-19T07:17:51.933Z,94.10
2019-01-19T07:20:27.879Z,94.00
2019-01-19T07:22:57.283Z,94.10
2019-01-19T07:25:26.364Z,94.10
2019-01-19T07:27:55.431Z,93.90
2019-01-19T07:30:24.563Z,93.70
2019-01-19T07:32:53.648Z,93.90
2019-01-19T07:35:22.723Z,93.80
2019-01-19T07:37:52.206Z,93.80
2019-01-19T07:40:21.583Z,93.60
2019-01-19T07:42:52.295Z,93.60
2019-01-19T07:45:21.437Z,93.60
2019-01-19T07:47:50.833Z,93.70
2019-01-19T07:50:19.955Z,93.70
2019-01-19T07:52:49.086Z,93.80
2019-01-19T07:55:19.215Z,93.90
2019-01-19T07:57:48.292Z,93.80
2019-01-19T08:00:32.905Z,93.60
2019-01-19T08:03:01.970Z,94.10
2019-01-19T08:05:31.039Z,93.80
2019-01-19T08:08:00.464Z,93.70
2019-01-19T08:10:29.793Z,93.60
2019-01-19T08:12:58.858Z,93.70
2019-01-19T08:15:29.714Z,93.70
2019-01-19T08:18:00.452Z,93.60
2019-01-19T08:20:29.802Z,93.80
2019-01-19T08:22:58.888Z,93.70
2019-01-19T08:25:27.951Z,93.80
2019-01-19T08:27:57.075Z,93.60
2019-01-19T08:30:29.124Z,93.50
2019-01-19T08:32:58.235Z,93.20
2019-01-19T08:35:27.719Z,93.40
2019-01-19T08:37:56.788Z,93.40
2019-01-19T08:40:35.313Z,93.40
2019-01-19T08:43:08.878Z,93.30
2019-01-19T08:45:38.189Z,93.40
2019-01-19T08:48:07.917Z,93.60
2019-01-19T08:50:37.292Z,93.10
2019-01-19T08:53:06.332Z,93.20
2019-01-19T08:55:35.411Z,93.50
2019-01-19T08:58:04.441Z,93.60
2019-01-19T09:00:33.484Z,93.60
2019-01-19T09:03:04.201Z,93.50
2019-01-19T09:05:33.236Z,93.50
2019-01-19T09:08:02.304Z,93.30
2019-01-19T09:10:31.703Z,93.20
2019-01-19T09:13:00.737Z,93.30
2019-01-19T09:15:29.777Z,93.80
2019-01-19T09:17:58.869Z,93.60
2019-01-19T09:20:27.905Z,93.50
2019-01-19T09:22:58.618Z,94.40
2019-01-19T09:25:28.003Z,94.30
2019-01-19T09:27:57.082Z,93.50
2019-01-19T09:30:26.170Z,93.70
2019-01-19T09:32:55.511Z,93.40
2019-01-19T09:35:24.545Z,93.50
2019-01-19T09:37:53.886Z,93.50
2019-01-19T09:40:23.005Z,93.70
2019-01-19T09:42:52.379Z,93.40
2019-01-19T09:45:21.914Z,93.20
2019-01-19T09:47:51.023Z,93.60
2019-01-19T09:50:21.797Z,93.30
2019-01-19T09:52:50.879Z,93.50
2019-01-19T09:55:19.991Z,93.70
2019-01-19T09:57:49.319Z,93.20
2019-01-19T10:00:24.869Z,92.90
2019-01-19T10:02:53.937Z,92.90
2019-01-19T10:05:26.277Z,93.10
2019-01-19T10:07:55.390Z,93.00
2019-01-19T10:10:24.720Z,92.60
2019-01-19T10:12:54.030Z,92.80
2019-01-19T10:15:23.722Z,92.30
2019-01-19T10:17:52.845Z,92.60
2019-01-19T10:20:27.912Z,92.60
2019-01-19T10:22:57.271Z,92.70
2019-01-19T10:25:26.687Z,92.30
2019-01-19T10:27:55.807Z,92.30
2019-01-19T10:30:28.789Z,92.20
2019-01-19T10:32:57.901Z,92.50
2019-01-19T10:35:27.340Z,91.90
2019-01-19T10:37:56.953Z,91.50
2019-01-19T10:40:26.167Z,91.90
2019-01-19T10:42:55.281Z,92.30
2019-01-19T10:45:29.052Z,91.90
2019-01-19T10:47:58.397Z,92.00
2019-01-19T10:50:27.467Z,91.90
2019-01-19T10:52:56.837Z,91.90
2019-01-19T10:55:25.893Z,92.00
2019-01-19T10:57:55.353Z,91.40
2019-01-19T11:00:28.380Z,91.30
2019-01-19T11:02:58.856Z,90.80
2019-01-19T11:05:28.503Z,90.70
2019-01-19T11:08:03.602Z,91.10
2019-01-19T11:10:32.291Z,90.70
2019-01-19T11:13:01.398Z,90.80
2019-01-19T11:15:30.457Z,90.60
2019-01-19T11:17:59.594Z,90.40
2019-01-19T11:20:32.577Z,90.50
2019-01-19T11:23:02.386Z,90.30
2019-01-19T11:25:31.522Z,89.10
2019-01-19T11:28:00.880Z,89.40
2019-01-19T11:30:33.156Z,87.80
2019-01-19T11:33:02.539Z,86.50
2019-01-19T11:35:31.712Z,87.10
2019-01-19T11:38:00.834Z,86.60
2019-01-19T11:40:36.173Z,87.30
2019-01-19T11:43:07.927Z,86.80
2019-01-19T11:45:37.114Z,84.90
2019-01-19T11:48:06.367Z,85.30
2019-01-19T11:50:35.731Z,83.80
2019-01-19T11:53:04.785Z,83.80
2019-01-19T11:55:33.857Z,85.10
2019-01-19T11:58:04.458Z,84.00
2019-01-19T12:00:37.317Z,84.80
2019-01-19T12:03:07.249Z,83.80
2019-01-19T12:05:37.175Z,82.60
2019-01-19T12:08:07.097Z,81.60
2019-01-19T12:10:36.159Z,81.40
2019-01-19T12:13:05.281Z,82.70
2019-01-19T12:15:34.676Z,81.50
2019-01-19T12:18:03.896Z,79.30
2019-01-19T12:20:37.899Z,78.80
2019-01-19T12:23:08.668Z,78.30
2019-01-19T12:25:38.009Z,78.30
2019-01-19T12:28:07.188Z,76.50
2019-01-19T12:30:36.844Z,76.10
2019-01-19T12:33:06.743Z,75.50
2019-01-19T12:35:35.956Z,75.00
2019-01-19T12:38:04.977Z,74.20
2019-01-19T12:40:34.027Z,74.80
2019-01-19T12:43:10.163Z,74.00
2019-01-19T12:45:49.232Z,74.80
2019-01-19T12:48:18.324Z,73.10
2019-01-19T12:50:47.385Z,71.70
2019-01-19T12:53:16.502Z,73.10
2019-01-19T12:55:45.627Z,71.50
2019-01-19T12:58:14.694Z,70.30
2019-01-19T13:00:44.103Z,70.40
2019-01-19T13:03:13.485Z,71.10
2019-01-19T13:05:56.658Z,69.90
2019-01-19T13:08:34.410Z,67.80
2019-01-19T13:11:36.278Z,68.60
2019-01-19T13:14:05.670Z,66.90
2019-01-19T13:17:02.319Z,65.20
2019-01-19T13:19:39.013Z,65.70
2019-01-19T13:22:30.630Z,65.70
2019-01-19T13:25:28.320Z,63.40
2019-01-19T13:28:46.335Z,64.10
2019-01-19T13:31:34.863Z,64.50
2019-01-19T13:34:42.055Z,62.50
2019-01-19T13:37:40.992Z,62.50
2019-01-19T13:40:29.936Z,61.50
2019-01-19T13:43:21.997Z,61.50
2019-01-19T13:46:11.124Z,62.20
2019-01-19T13:49:18.232Z,60.90
2019-01-19T13:51:54.731Z,59.80
2019-01-19T13:54:34.922Z,60.20
2019-01-19T13:57:17.211Z,60.20
2019-01-19T14:00:08.620Z,60.40
2019-01-19T14:03:26.410Z,59.20
2019-01-19T14:06:08.373Z,58.40
2019-01-19T14:08:58.894Z,58.00
2019-01-19T14:11:38.304Z,57.90
2019-01-19T14:14:17.713Z,57.30
2019-01-19T14:17:31.239Z,57.90
2019-01-19T14:20:23.503Z,59.40
2019-01-19T14:23:29.194Z,58.40
2019-01-19T14:26:39.652Z,58.50
2019-01-19T14:29:37.470Z,58.70
2019-01-19T14:32:23.451Z,58.30
2019-01-19T14:35:24.103Z,57.50
2019-01-19T14:38:29.432Z,57.70
2019-01-19T14:41:18.007Z,57.30
2019-01-19T14:44:09.751Z,57.30
2019-01-19T14:46:43.696Z,57.30
2019-01-19T14:49:37.992Z,58.00
2019-01-19T14:52:34.224Z,58.60
2019-01-19T14:55:25.850Z,58.10
2019-01-19T14:58:05.360Z,58.00
2019-01-19T15:00:57.142Z,59.20
2019-01-19T15:03:37.240Z,60.20
2019-01-19T15:06:26.205Z,61.20
2019-01-19T15:09:31.267Z,61.80
2019-01-19T15:12:32.354Z,62.40
2019-01-19T15:15:11.796Z,62.90
2019-01-19T15:18:06.531Z,62.50
2019-01-19T15:20:52.329Z,63.10
2019-01-19T15:24:07.346Z,63.60
2019-01-19T15:27:11.293Z,63.30
2019-01-19T15:30:00.355Z,64.50
2019-01-19T15:32:45.821Z,64.60
2019-01-19T15:35:28.959Z,66.10
2019-01-19T15:38:37.691Z,65.80
2019-01-19T15:41:35.306Z,66.90
2019-01-19T15:44:26.544Z,68.00
2019-01-19T15:47:00.560Z,68.70
2019-01-19T15:49:58.602Z,69.00
2019-01-19T15:53:02.165Z,70.20
2019-01-19T15:55:53.663Z,70.70
2019-01-19T15:58:33.241Z,71.60
2019-01-19T16:01:13.043Z,71.50
2019-01-19T16:03:55.546Z,71.70
2019-01-19T16:06:42.486Z,72.20
2019-01-19T16:09:31.336Z,71.90
2019-01-19T16:12:23.165Z,71.80
2019-01-19T16:15:23.092Z,72.60
2019-01-19T16:18:02.774Z,72.80
2019-01-19T16:20:56.394Z,73.10
2019-01-19T16:23:42.227Z,73.30
2019-01-19T16:26:34.506Z,73.80
2019-01-19T16:29:29.432Z,74.30
2019-01-19T16:32:14.963Z,74.60
2019-01-19T16:35:15.452Z,75.30
2019-01-19T16:37:55.487Z,75.20
2019-01-19T16:41:07.452Z,75.50
2019-01-19T16:43:44.089Z,75.60
2019-01-19T16:46:35.849Z,76.30
2019-01-19T16:49:24.595Z,77.00
2019-01-19T16:52:16.277Z,77.70
2019-01-19T16:54:59.196Z,77.70
2019-01-19T16:57:54.709Z,78.30
2019-01-19T17:00:43.638Z,78.40
2019-01-19T17:03:44.990Z,78.50
2019-01-19T17:06:34.104Z,78.60
2019-01-19T17:09:32.842Z,78.70
2019-01-19T17:12:37.988Z,78.80
2019-01-19T17:15:30.256Z,78.90
2019-01-19T17:18:19.227Z,79.00
2019-01-19T17:21:11.029Z,79.20
2019-01-19T17:24:13.850Z,79.00
2019-01-19T17:26:59.056Z,78.60
2019-01-19T17:29:57.988Z,78.70
2019-01-19T17:32:49.454Z,78.60
2019-01-19T17:35:47.181Z,78.20
2019-01-19T17:38:41.766Z,78.10
2019-01-19T17:41:55.193Z,78.40
2019-01-19T17:44:47.155Z,78.80
2019-01-19T17:47:47.830Z,79.10
2019-01-19T17:50:41.347Z,78.70
2019-01-19T17:53:24.465Z,78.40
2019-01-19T17:56:19.692Z,78.40
2019-01-19T17:59:09.955Z,78.20
2019-01-19T18:01:43.903Z,78.00
2019-01-19T18:04:26.904Z,78.00
2019-01-19T18:07:09.379Z,77.50
2019-01-19T18:10:11.637Z,77.70
2019-01-19T18:13:07.985Z,76.80
2019-01-19T18:16:10.682Z,77.70
2019-01-19T18:19:10.521Z,76.80
2019-01-19T18:22:12.574Z,76.80
2019-01-19T18:25:07.440Z,76.30
2019-01-19T18:28:20.890Z,76.30
2019-01-19T18:31:21.751Z,75.80
2019-01-19T18:34:07.318Z,75.60
2019-01-19T18:36:58.977Z,75.80
2019-01-19T18:39:36.175Z,75.90
2019-01-19T18:42:15.935Z,75.70
2019-01-19T18:45:01.489Z,75.20
2019-01-19T18:47:43.897Z,74.80
2019-01-19T18:50:35.504Z,74.60
2019-01-19T18:53:30.714Z,74.50
2019-01-19T18:56:54.707Z,74.10
2019-01-19T18:59:34.396Z,74.00
2019-01-19T19:02:29.530Z,74.10
2019-01-19T19:05:15.435Z,74.10
2019-01-19T19:08:04.154Z,74.20
2019-01-19T19:11:09.838Z,74.40
2019-01-19T19:13:49.415Z,74.90
2019-01-19T19:16:47.760Z,75.20
2019-01-19T19:19:37.751Z,75.10
2019-01-19T19:22:23.517Z,75.50
2019-01-19T19:25:29.124Z,75.80
2019-01-19T19:28:39.250Z,76.10
2019-01-19T19:31:33.684Z,76.70
2019-01-19T19:34:16.355Z,76.50
2019-01-19T19:36:55.891Z,76.30
2019-01-19T19:39:44.935Z,76.30
2019-01-19T19:42:37.075Z,76.40
2019-01-19T19:45:38.434Z,76.80
2019-01-19T19:48:32.524Z,76.70
2019-01-19T19:51:41.288Z,76.70
2019-01-19T19:54:10.397Z,76.60
2019-01-19T19:56:38.160Z,76.30
2019-01-19T19:59:07.219Z,76.40
2019-01-19T20:01:36.692Z,76.40
2019-01-19T20:04:06.105Z,77.00
2019-01-19T20:06:35.271Z,77.10
2019-01-19T20:09:06.463Z,77.60
2019-01-19T20:11:35.843Z,78.10
2019-01-19T20:14:05.345Z,78.40
2019-01-19T20:16:35.478Z,78.60
2019-01-19T20:19:04.703Z,78.50
2019-01-19T20:21:33.808Z,78.80
2019-01-19T20:24:03.168Z,79.10
2019-01-19T20:26:32.275Z,79.50
2019-01-19T20:29:01.670Z,79.90
2019-01-19T20:31:30.729Z,79.40
2019-01-19T20:33:59.787Z,79.50
2019-01-19T20:36:28.901Z,79.50
2019-01-19T20:38:58.252Z,79.60
2019-01-19T20:41:27.323Z,79.50
2019-01-19T20:43:56.758Z,79.80
2019-01-19T20:46:25.824Z,80.20
2019-01-19T20:48:54.890Z,80.50
2019-01-19T20:51:24.003Z,81.10
2019-01-19T20:53:53.335Z,81.10
2019-01-19T20:56:22.735Z,81.80
2019-01-19T20:58:51.852Z,83.20
2019-01-19T21:01:23.789Z,82.20
2019-01-19T21:03:52.857Z,82.00
2019-01-19T21:06:21.984Z,81.70
2019-01-19T21:08:51.045Z,81.80
2019-01-19T21:11:20.469Z,82.10
2019-01-19T21:13:50.703Z,82.50
2019-01-19T21:16:19.820Z,82.70
2019-01-19T21:18:48.890Z,83.10
2019-01-19T21:21:18.018Z,82.60
2019-01-19T21:23:47.379Z,83.00
2019-01-19T21:26:18.502Z,83.20
2019-01-19T21:28:47.704Z,82.80
2019-01-19T21:31:16.777Z,82.80
2019-01-19T21:33:45.851Z,82.70
2019-01-19T21:36:15.211Z,82.50
2019-01-19T21:38:44.278Z,82.90
2019-01-19T21:41:13.351Z,82.80
2019-01-19T21:43:45.693Z,83.00
2019-01-19T21:46:14.756Z,82.20
2019-01-19T21:48:44.184Z,82.20
2019-01-19T21:51:13.575Z,82.20
2019-01-19T21:53:42.640Z,82.70
2019-01-19T21:56:11.977Z,82.40
2019-01-19T21:58:41.095Z,82.30
2019-01-19T22:01:10.160Z,82.20
2019-01-19T22:03:39.240Z,81.40
2019-01-19T22:06:08.337Z,81.70
2019-01-19T22:08:37.763Z,81.50
2019-01-19T22:11:07.155Z,81.50
2019-01-19T22:13:36.229Z,81.60
2019-01-19T22:16:05.297Z,81.30
2019-01-19T22:18:34.648Z,82.10
2019-01-19T22:21:03.712Z,82.00
2019-01-19T22:23:32.861Z,82.20
2019-01-19T22:26:01.916Z,81.60
2019-01-19T22:28:31.032Z,81.50
2019-01-19T22:31:00.101Z,81.10
2019-01-19T22:33:29.225Z,81.80
2019-01-19T22:35:58.343Z,81.20
2019-01-19T22:38:30.470Z,80.90
2019-01-19T22:40:59.792Z,81.60
2019-01-19T22:43:29.244Z,81.30
2019-01-19T22:45:58.305Z,81.30
2019-01-19T22:48:27.693Z,81.10
2019-01-19T22:50:57.092Z,81.40
2019-01-19T22:53:26.162Z,81.00
2019-01-19T22:55:55.493Z,81.20
2019-01-19T22:58:24.896Z,81.80
2019-01-19T23:01:03.300Z,82.10
2019-01-19T23:03:33.606Z,81.40
2019-01-19T23:06:03.035Z,81.60
2019-01-19T23:08:32.102Z,81.50
2019-01-19T23:11:01.552Z,81.30
2019-01-19T23:13:30.718Z,81.30
2019-01-19T23:16:00.118Z,81.70
2019-01-19T23:18:29.226Z,81.50
2019-01-19T23:20:58.630Z,81.70
2019-01-19T23:23:27.688Z,81.70
2019-01-19T23:25:57.922Z,81.80
2019-01-19T23:28:27.246Z,81.30
2019-01-19T23:30:56.316Z,81.60
2019-01-19T23:33:25.539Z,81.10
2019-01-19T23:35:54.584Z,81.10
2019-01-19T23:38:23.944Z,81.70
2019-01-19T23:40:53.341Z,81.00
2019-01-19T23:43:22.742Z,81.90
2019-01-19T23:45:51.807Z,81.50
2019-01-19T23:48:20.931Z,80.90
2019-01-19T23:50:50.004Z,81.30
2019-01-19T23:53:19.249Z,81.40
2019-01-19T23:55:48.629Z,81.20
2019-01-19T23:58:17.690Z,81.60
